KPEO

Details ICAO KPEO
Name PENN YAN
Region United States
Timezone America/New_York (UTC-5.0)
Plans Departing 2
Arriving 3
Stats Elevation 990 ft / 302 m (AMSL)
Location 42.638095° -77.053054°
Runways 2
Magnetic Variation 11.688° W
Sunrise 2017-12-12 12:30:40 UTC / 2017-12-12 07:30:40 Local
Sunset 2017-12-12 21:36:17 UTC / 2017-12-12 16:36:17 Local
Advertisement - Login to hide

Runways

ID Width Length Bearing (true) Bearing (mag) Surface Threshold Offset Overrun Length
01 100 ft / 30 m 5,506 ft / 1,678 m 356.91° 8.60° Asphalt 0 ft / 0 m 0 ft / 0 m
10 50 ft / 15 m 3,553 ft / 1,083 m 88.57° 100.26° Asphalt 361 ft / 110 m 200 ft / 61 m
19 100 ft / 30 m 5,506 ft / 1,678 m 176.91° 188.60° Asphalt 0 ft / 0 m 0 ft / 0 m
28 50 ft / 15 m 3,553 ft / 1,083 m 268.58° 280.27° Asphalt 384 ft / 117 m 0 ft / 0 m

Map

Weather


0- 5 10 15 20 25 30 35+ Temperature / ° C

Clouds and Precipitation
Forecast for 2017-12-12 06:00 UTC. Updated 2 hours ago

Ground ~20,000 ft ~40,000 ft Winds

METAR

KPEO 120653Z AUTO 00000KT 4SM -SN OVC037 M01/M04 A2965 RMK AO2 SNB45 SLP052 P0000 T10111044

TAF

Not found

Frequencies

Recorded 121.17 MHz ASOS
Approach 124.30 MHz ELIMIRA APP/DEP
Unicom 123.00 MHz CTAF/UNICOM
Warning: Do not use this data for real-world aviation or navigation. No guarantee of current accuracy is given.